createdAt,value
2023-02-16T00:01:02.277Z,13.20
2023-02-16T00:03:30.011Z,13.27
2023-02-16T00:05:57.682Z,12.60
2023-02-16T00:08:26.467Z,13.50
2023-02-16T00:11:11.497Z,13.57
2023-02-16T00:13:53.097Z,13.40
2023-02-16T00:16:21.561Z,14.37
2023-02-16T00:18:49.391Z,14.07
2023-02-16T00:21:17.211Z,14.40
2023-02-16T00:23:46.043Z,14.43
2023-02-16T00:26:15.279Z,15.00
2023-02-16T00:28:43.249Z,14.33
2023-02-16T00:31:16.531Z,14.07
2023-02-16T00:33:44.018Z,12.93
2023-02-16T00:36:11.725Z,13.60
2023-02-16T00:38:39.438Z,12.80
2023-02-16T00:41:35.494Z,13.30
2023-02-16T00:44:02.943Z,13.57
2023-02-16T00:46:30.453Z,13.93
2023-02-16T00:48:57.898Z,13.63
2023-02-16T00:51:26.480Z,13.73
2023-02-16T00:53:54.149Z,13.30
2023-02-16T00:56:23.245Z,13.37
2023-02-16T00:58:52.035Z,13.50
2023-02-16T01:01:21.316Z,13.57
2023-02-16T01:03:48.812Z,13.07
2023-02-16T01:06:33.623Z,13.47
2023-02-16T01:09:21.453Z,12.40
2023-02-16T01:11:50.219Z,13.10
2023-02-16T01:14:17.720Z,12.30
2023-02-16T01:16:45.179Z,13.00
2023-02-16T01:19:12.710Z,13.10
2023-02-16T01:21:40.261Z,13.40
2023-02-16T01:24:07.936Z,13.73
2023-02-16T01:26:38.939Z,12.97
2023-02-16T01:29:07.681Z,14.03
2023-02-16T01:31:35.173Z,12.97
2023-02-16T01:34:02.698Z,13.57
2023-02-16T01:36:33.358Z,13.80
2023-02-16T01:39:00.984Z,13.30
2023-02-16T01:41:38.431Z,13.40
2023-02-16T01:44:08.827Z,13.50
2023-02-16T01:46:40.335Z,13.50
2023-02-16T01:49:12.700Z,14.03
2023-02-16T01:51:46.941Z,13.57
2023-02-16T01:54:19.226Z,13.80
2023-02-16T01:56:48.705Z,13.57
2023-02-16T01:59:22.749Z,13.17
2023-02-16T02:01:54.662Z,14.23
2023-02-16T02:04:44.213Z,14.37
2023-02-16T02:07:15.125Z,14.33
2023-02-16T02:09:45.479Z,13.87
2023-02-16T02:12:16.537Z,13.33
2023-02-16T02:14:43.980Z,13.50
2023-02-16T02:17:14.534Z,13.17
2023-02-16T02:19:46.829Z,13.70
2023-02-16T02:22:48.126Z,13.37
2023-02-16T02:25:26.380Z,13.83
2023-02-16T02:27:58.495Z,13.83
2023-02-16T02:30:37.544Z,13.03
2023-02-16T02:33:10.665Z,13.20
2023-02-16T02:35:44.581Z,14.10
2023-02-16T02:38:14.103Z,13.40
2023-02-16T02:40:48.421Z,15.73
2023-02-16T02:43:20.133Z,14.77
2023-02-16T02:45:48.891Z,14.20
2023-02-16T02:48:16.419Z,13.90
2023-02-16T02:51:09.802Z,13.80
2023-02-16T02:53:38.515Z,14.13
2023-02-16T02:56:23.829Z,13.50
2023-02-16T02:59:14.029Z,13.97
2023-02-16T03:01:44.950Z,13.30
2023-02-16T03:04:12.636Z,13.83
2023-02-16T03:06:42.632Z,14.03
2023-02-16T03:09:12.105Z,14.30
2023-02-16T03:11:57.034Z,13.50
2023-02-16T03:14:27.178Z,14.33
2023-02-16T03:17:14.037Z,14.70
2023-02-16T03:20:00.457Z,15.10
2023-02-16T03:22:45.829Z,14.67
2023-02-16T03:25:30.677Z,14.10
2023-02-16T03:28:17.293Z,13.57
2023-02-16T03:30:46.958Z,13.80
2023-02-16T03:33:14.544Z,13.57
2023-02-16T03:35:42.021Z,14.90
2023-02-16T03:38:09.710Z,13.87
2023-02-16T03:40:40.749Z,14.20
2023-02-16T03:43:09.037Z,13.53
2023-02-16T03:45:38.222Z,14.50
2023-02-16T03:48:07.685Z,14.93
2023-02-16T03:50:35.153Z,13.67
2023-02-16T03:53:07.812Z,14.40
2023-02-16T03:55:35.909Z,14.47
2023-02-16T03:58:03.683Z,15.77
2023-02-16T04:00:31.209Z,14.73
2023-02-16T04:02:58.611Z,15.73
2023-02-16T04:05:27.989Z,15.73
2023-02-16T04:07:55.418Z,14.57
2023-02-16T04:10:23.355Z,15.10
2023-02-16T04:12:49.916Z,14.57
2023-02-16T04:15:18.794Z,14.70
2023-02-16T04:17:46.693Z,15.60
2023-02-16T04:20:15.753Z,15.33
2023-02-16T04:22:46.550Z,15.83
2023-02-16T04:25:14.253Z,15.63
2023-02-16T04:27:41.965Z,16.27
2023-02-16T04:30:10.757Z,15.80
2023-02-16T04:32:38.170Z,15.70
2023-02-16T04:35:06.095Z,15.57
2023-02-16T04:37:33.753Z,14.60
2023-02-16T04:40:02.652Z,15.83
2023-02-16T04:42:30.270Z,14.97
2023-02-16T04:44:58.043Z,15.33
2023-02-16T04:47:26.666Z,15.53
2023-02-16T04:49:54.633Z,15.47
2023-02-16T04:52:22.137Z,15.07
2023-02-16T04:54:49.615Z,15.23
2023-02-16T04:57:19.251Z,14.50
2023-02-16T04:59:46.740Z,16.33
2023-02-16T05:02:14.291Z,15.60
2023-02-16T05:04:42.196Z,14.93
2023-02-16T05:07:10.059Z,15.10
2023-02-16T05:09:37.846Z,15.00
2023-02-16T05:12:23.135Z,15.67
2023-02-16T05:14:51.985Z,15.20
2023-02-16T05:17:20.698Z,16.20
2023-02-16T05:19:48.962Z,15.30
2023-02-16T05:22:16.938Z,15.30
2023-02-16T05:24:44.784Z,16.03
2023-02-16T05:27:13.779Z,15.27
2023-02-16T05:29:41.279Z,15.50
2023-02-16T05:32:10.272Z,15.13
2023-02-16T05:34:37.742Z,14.60
2023-02-16T05:37:05.400Z,15.30
2023-02-16T05:39:33.004Z,14.97
2023-02-16T05:42:00.425Z,15.73
2023-02-16T05:44:28.105Z,15.17
2023-02-16T05:46:55.561Z,14.00
2023-02-16T05:49:24.319Z,14.50
2023-02-16T05:51:51.803Z,14.47
2023-02-16T05:54:19.562Z,14.20
2023-02-16T05:56:47.565Z,15.40
2023-02-16T05:59:15.948Z,13.87
2023-02-16T06:01:43.611Z,14.40
2023-02-16T06:04:11.532Z,14.80
2023-02-16T06:06:40.505Z,15.20
2023-02-16T06:09:08.782Z,15.10
2023-02-16T06:11:39.282Z,14.27
2023-02-16T06:14:08.566Z,14.33
2023-02-16T06:16:36.354Z,15.07
2023-02-16T06:19:04.405Z,14.67
2023-02-16T06:21:32.334Z,13.77
2023-02-16T06:24:01.443Z,14.97
2023-02-16T06:26:28.984Z,15.93
2023-02-16T06:28:56.599Z,16.17
2023-02-16T06:31:25.092Z,15.57
2023-02-16T06:33:52.934Z,15.40
2023-02-16T06:36:20.645Z,14.77
2023-02-16T06:38:48.082Z,16.30
2023-02-16T06:41:31.281Z,15.23
2023-02-16T06:43:59.830Z,14.50
2023-02-16T06:46:27.615Z,15.90
2023-02-16T06:48:55.406Z,15.63
2023-02-16T06:51:22.835Z,15.90
2023-02-16T06:53:50.444Z,14.13
2023-02-16T06:56:19.260Z,15.73
2023-02-16T06:58:46.724Z,15.90
2023-02-16T07:01:14.333Z,15.60
2023-02-16T07:03:41.882Z,15.47
2023-02-16T07:06:09.471Z,16.20
2023-02-16T07:08:36.879Z,15.87
2023-02-16T07:11:04.844Z,15.60
2023-02-16T07:13:36.416Z,15.13
2023-02-16T07:16:04.940Z,15.27
2023-02-16T07:18:32.801Z,15.87
2023-02-16T07:21:00.305Z,16.50
2023-02-16T07:23:27.834Z,15.00
2023-02-16T07:25:55.276Z,15.50
2023-02-16T07:28:22.719Z,15.93
2023-02-16T07:30:51.806Z,17.10
2023-02-16T07:33:19.968Z,15.50
2023-02-16T07:35:47.521Z,16.50
2023-02-16T07:38:15.105Z,15.57
2023-02-16T07:40:42.533Z,15.37
2023-02-16T07:43:10.588Z,16.83
2023-02-16T07:45:38.098Z,15.80
2023-02-16T07:48:07.171Z,15.60
2023-02-16T07:50:34.769Z,15.10
2023-02-16T07:53:02.699Z,15.40
2023-02-16T07:55:30.564Z,16.10
2023-02-16T07:57:57.988Z,16.10
2023-02-16T08:00:25.443Z,15.60
2023-02-16T08:02:53.074Z,15.70
2023-02-16T08:05:21.926Z,15.90
2023-02-16T08:07:49.391Z,14.93
2023-02-16T08:10:17.145Z,16.47
2023-02-16T08:12:44.763Z,17.60
2023-02-16T08:15:12.523Z,16.70
2023-02-16T08:17:40.001Z,15.80
2023-02-16T08:20:08.606Z,15.43
2023-02-16T08:22:37.699Z,15.00
2023-02-16T08:25:07.019Z,15.90
2023-02-16T08:27:34.587Z,17.03
2023-02-16T08:30:02.057Z,16.87
2023-02-16T08:32:29.693Z,16.33
2023-02-16T08:34:57.398Z,16.57
2023-02-16T08:37:24.986Z,17.03
2023-02-16T08:39:53.849Z,17.20
2023-02-16T08:42:21.619Z,16.63
2023-02-16T08:44:49.131Z,16.63
2023-02-16T08:47:20.079Z,16.50
2023-02-16T08:49:47.702Z,15.87
2023-02-16T08:52:15.172Z,16.13
2023-02-16T08:54:42.666Z,15.90
2023-02-16T08:57:11.513Z,15.97
2023-02-16T08:59:38.924Z,16.57
2023-02-16T09:02:06.827Z,16.23
2023-02-16T09:04:34.381Z,17.47
2023-02-16T09:07:01.916Z,16.60
2023-02-16T09:09:29.658Z,16.80
2023-02-16T09:11:58.071Z,16.00
2023-02-16T09:14:28.000Z,16.47
2023-02-16T09:16:55.784Z,15.20
2023-02-16T09:19:23.251Z,16.07
2023-02-16T09:21:52.080Z,16.20
2023-02-16T09:24:19.619Z,16.37
2023-02-16T09:26:47.094Z,17.03
2023-02-16T09:29:14.669Z,16.63
2023-02-16T09:31:44.439Z,15.60
2023-02-16T09:34:16.045Z,16.60
2023-02-16T09:36:43.977Z,15.60
2023-02-16T09:39:11.487Z,16.13
2023-02-16T09:41:44.368Z,17.23
2023-02-16T09:44:18.340Z,15.73
2023-02-16T09:46:47.860Z,16.90
2023-02-16T09:49:23.785Z,16.07
2023-02-16T09:51:55.743Z,16.90
2023-02-16T09:54:29.293Z,16.50
2023-02-16T09:56:59.691Z,15.20
2023-02-16T09:59:38.369Z,14.90
2023-02-16T10:02:25.619Z,16.07
2023-02-16T10:05:13.189Z,15.80
2023-02-16T10:07:46.634Z,14.93
2023-02-16T10:10:16.361Z,15.07
2023-02-16T10:12:46.894Z,15.80
2023-02-16T10:15:16.443Z,14.87
2023-02-16T10:17:47.876Z,15.70
2023-02-16T10:20:17.337Z,16.20
2023-02-16T10:22:47.375Z,15.40
2023-02-16T10:25:16.957Z,15.33
2023-02-16T10:27:46.059Z,15.67
2023-02-16T10:30:15.284Z,14.67
2023-02-16T10:32:48.368Z,15.60
2023-02-16T10:35:20.530Z,15.50
2023-02-16T10:37:53.222Z,15.40
2023-02-16T10:40:28.634Z,16.20
2023-02-16T10:42:59.494Z,15.20
2023-02-16T10:45:31.872Z,14.77
2023-02-16T10:47:59.491Z,15.00
2023-02-16T10:50:31.231Z,14.60
2023-02-16T10:53:00.956Z,15.60
2023-02-16T10:55:28.429Z,15.27
2023-02-16T10:57:57.057Z,15.37
2023-02-16T11:00:27.910Z,15.50
2023-02-16T11:02:56.685Z,14.90
2023-02-16T11:05:33.741Z,15.27
2023-02-16T11:08:02.497Z,15.30
2023-02-16T11:10:40.216Z,14.10
2023-02-16T11:13:08.968Z,15.07
2023-02-16T11:15:37.686Z,15.37
2023-02-16T11:18:07.980Z,15.53
2023-02-16T11:20:51.608Z,16.60
2023-02-16T11:23:22.996Z,16.33
2023-02-16T11:25:56.456Z,14.93
2023-02-16T11:28:30.327Z,14.70
2023-02-16T11:31:04.954Z,14.50
2023-02-16T11:33:34.705Z,15.60
2023-02-16T11:36:05.302Z,15.63
2023-02-16T11:38:33.768Z,14.33
2023-02-16T11:41:02.878Z,14.90
2023-02-16T11:43:32.891Z,14.73
2023-02-16T11:46:02.222Z,14.57
2023-02-16T11:48:31.224Z,14.77
2023-02-16T11:51:00.133Z,14.17
2023-02-16T11:53:30.235Z,14.10
2023-02-16T11:56:23.319Z,14.50
2023-02-16T11:59:03.910Z,15.87
2023-02-16T12:01:37.524Z,14.73
2023-02-16T12:04:08.824Z,15.00
2023-02-16T12:06:47.074Z,14.37
2023-02-16T12:09:20.770Z,15.33
2023-02-16T12:11:52.668Z,13.70
2023-02-16T12:14:24.248Z,14.53
2023-02-16T12:16:54.242Z,14.70
2023-02-16T12:19:28.844Z,14.43
2023-02-16T12:21:58.962Z,14.50
2023-02-16T12:24:36.710Z,14.60
2023-02-16T12:27:05.631Z,14.73
2023-02-16T12:29:41.404Z,14.80
2023-02-16T12:32:17.105Z,14.67
2023-02-16T12:34:51.582Z,14.87
2023-02-16T12:37:22.588Z,14.73
2023-02-16T12:39:56.582Z,14.97
2023-02-16T12:42:34.696Z,15.13
2023-02-16T12:45:04.156Z,13.70
2023-02-16T12:47:33.734Z,15.10
2023-02-16T12:50:03.424Z,14.40
2023-02-16T12:52:36.173Z,14.93
2023-02-16T12:55:12.356Z,14.33
2023-02-16T12:57:42.953Z,14.57
2023-02-16T13:00:16.893Z,14.07
2023-02-16T13:02:48.126Z,13.47
2023-02-16T13:05:19.041Z,13.47
2023-02-16T13:07:47.995Z,14.07
2023-02-16T13:10:19.172Z,13.73
2023-02-16T13:12:50.534Z,14.07
2023-02-16T13:15:20.666Z,12.80
2023-02-16T13:17:49.917Z,12.97
2023-02-16T13:20:19.735Z,13.00
2023-02-16T13:23:00.630Z,14.30
2023-02-16T13:25:37.299Z,13.53
2023-02-16T13:28:10.040Z,13.90
2023-02-16T13:30:45.816Z,13.60
2023-02-16T13:33:18.170Z,13.10
2023-02-16T13:35:53.602Z,13.93
2023-02-16T13:38:32.632Z,12.70
2023-02-16T13:41:12.956Z,13.70
2023-02-16T13:43:42.363Z,14.23
2023-02-16T13:46:14.890Z,14.50
2023-02-16T13:48:47.175Z,13.33
2023-02-16T13:51:16.686Z,14.90
2023-02-16T13:53:50.809Z,14.80
2023-02-16T13:56:23.265Z,14.83
2023-02-16T13:58:51.274Z,14.70
2023-02-16T14:01:43.174Z,14.70
2023-02-16T14:04:14.982Z,14.30
2023-02-16T14:06:43.651Z,14.60
2023-02-16T14:09:32.288Z,15.70
2023-02-16T14:12:05.664Z,13.63
2023-02-16T14:14:35.195Z,13.43
2023-02-16T14:17:24.420Z,13.83
2023-02-16T14:19:53.523Z,13.47
2023-02-16T14:22:23.064Z,13.00
2023-02-16T14:24:54.798Z,13.50
2023-02-16T14:27:43.844Z,13.07
2023-02-16T14:30:21.034Z,13.40
2023-02-16T14:32:50.336Z,15.20
2023-02-16T14:35:20.549Z,12.53
2023-02-16T14:37:54.053Z,13.10
2023-02-16T14:40:22.783Z,12.80
2023-02-16T14:42:53.280Z,12.43
2023-02-16T14:45:31.200Z,14.17
2023-02-16T14:48:04.574Z,14.10
2023-02-16T14:50:37.527Z,14.40
2023-02-16T14:53:34.992Z,13.77
2023-02-16T14:56:16.797Z,12.57
2023-02-16T14:58:52.862Z,12.90
2023-02-16T15:01:22.519Z,13.80
2023-02-16T15:03:51.597Z,12.80
2023-02-16T15:06:21.952Z,13.10
2023-02-16T15:08:56.977Z,13.20
2023-02-16T15:11:27.605Z,12.60
2023-02-16T15:13:56.452Z,12.50
2023-02-16T15:16:24.687Z,13.30
2023-02-16T15:18:53.254Z,12.80
2023-02-16T15:21:22.003Z,12.40
2023-02-16T15:23:50.701Z,11.97
2023-02-16T15:26:20.522Z,11.63
2023-02-16T15:28:52.256Z,11.60
2023-02-16T15:31:24.005Z,11.97
2023-02-16T15:33:54.887Z,12.20
2023-02-16T15:36:24.507Z,11.43
2023-02-16T15:38:59.250Z,11.70
2023-02-16T15:41:27.821Z,12.60
2023-02-16T15:43:55.609Z,12.10
2023-02-16T15:46:27.002Z,11.80
2023-02-16T15:48:54.584Z,11.80
2023-02-16T15:51:25.142Z,11.03
2023-02-16T15:53:53.680Z,10.17
2023-02-16T15:56:27.934Z,10.83
2023-02-16T15:58:55.925Z,11.23
2023-02-16T16:01:31.592Z,10.70
2023-02-16T16:04:00.407Z,10.50
2023-02-16T16:06:33.029Z,10.20
2023-02-16T16:09:00.957Z,10.03
2023-02-16T16:11:28.505Z,11.00
2023-02-16T16:13:56.064Z,11.60
2023-02-16T16:16:24.887Z,11.47
2023-02-16T16:18:53.832Z,11.27
2023-02-16T16:21:23.618Z,11.00
2023-02-16T16:23:59.013Z,10.50
2023-02-16T16:26:27.588Z,11.40
2023-02-16T16:28:55.816Z,11.50
2023-02-16T16:31:35.663Z,11.47
2023-02-16T16:34:03.881Z,11.10
2023-02-16T16:36:32.481Z,11.03
2023-02-16T16:39:10.088Z,11.60
2023-02-16T16:41:37.637Z,11.27
2023-02-16T16:44:05.356Z,10.83
2023-02-16T16:46:35.000Z,11.43
2023-02-16T16:49:04.477Z,10.30
2023-02-16T16:51:37.907Z,13.37
2023-02-16T16:54:06.187Z,12.27
2023-02-16T16:56:36.489Z,13.00
2023-02-16T16:59:04.380Z,12.50
2023-02-16T17:01:32.394Z,12.40
2023-02-16T17:04:01.551Z,11.70
2023-02-16T17:06:29.034Z,11.87
2023-02-16T17:08:56.469Z,11.40
2023-02-16T17:11:25.715Z,11.40
2023-02-16T17:13:54.760Z,12.10
2023-02-16T17:16:24.232Z,11.60
2023-02-16T17:18:51.656Z,11.07
2023-02-16T17:21:20.498Z,11.20
2023-02-16T17:23:53.138Z,10.40
2023-02-16T17:26:20.997Z,9.80
2023-02-16T17:28:48.493Z,10.40
2023-02-16T17:31:16.044Z,10.87
2023-02-16T17:33:44.778Z,10.27
2023-02-16T17:36:13.962Z,11.60
2023-02-16T17:38:42.845Z,10.40
2023-02-16T17:41:17.493Z,10.77
2023-02-16T17:43:44.911Z,10.80
2023-02-16T17:46:13.347Z,10.40
2023-02-16T17:48:40.882Z,10.60
2023-02-16T17:51:14.260Z,10.70
2023-02-16T17:53:43.089Z,10.33
2023-02-16T17:56:11.512Z,10.87
2023-02-16T17:58:39.102Z,11.23
2023-02-16T18:01:07.340Z,11.00
2023-02-16T18:03:34.866Z,10.57
2023-02-16T18:06:02.663Z,10.70
2023-02-16T18:08:30.324Z,10.77
2023-02-16T18:11:02.089Z,11.03
2023-02-16T18:13:29.691Z,10.27
2023-02-16T18:15:57.666Z,10.47
2023-02-16T18:18:25.119Z,10.00
2023-02-16T18:20:52.522Z,10.13
2023-02-16T18:23:19.987Z,9.70
2023-02-16T18:25:47.465Z,10.00
2023-02-16T18:28:18.261Z,9.87
2023-02-16T18:30:47.686Z,9.73
2023-02-16T18:33:15.164Z,10.53
2023-02-16T18:35:42.688Z,10.10
2023-02-16T18:38:10.236Z,10.00
2023-02-16T18:40:37.775Z,10.00
2023-02-16T18:43:05.142Z,10.60
2023-02-16T18:45:33.933Z,10.50
2023-02-16T18:48:01.392Z,10.07
2023-02-16T18:50:28.909Z,10.30
2023-02-16T18:52:56.337Z,10.10
2023-02-16T18:55:24.300Z,9.50
2023-02-16T18:57:51.686Z,9.70
2023-02-16T19:00:21.390Z,10.30
2023-02-16T19:02:50.368Z,10.37
2023-02-16T19:05:17.727Z,10.00
2023-02-16T19:07:45.202Z,10.00
2023-02-16T19:10:12.744Z,9.93
2023-02-16T19:12:40.558Z,9.93
2023-02-16T19:15:08.591Z,10.50
2023-02-16T19:17:36.277Z,10.50
2023-02-16T19:20:05.508Z,10.83
2023-02-16T19:22:33.684Z,9.60
2023-02-16T19:25:01.096Z,9.90
2023-02-16T19:27:28.514Z,10.13
2023-02-16T19:29:55.981Z,9.90
2023-02-16T19:32:23.434Z,10.10
2023-02-16T19:34:50.892Z,9.77
2023-02-16T19:37:19.730Z,9.70
2023-02-16T19:39:47.166Z,9.23
2023-02-16T19:42:14.647Z,9.70
2023-02-16T19:44:46.062Z,9.97
2023-02-16T19:47:13.509Z,9.53
2023-02-16T19:49:41.000Z,9.60
2023-02-16T19:52:08.464Z,10.10
2023-02-16T19:54:37.397Z,10.30
2023-02-16T19:57:05.209Z,10.27
2023-02-16T19:59:33.102Z,9.43
2023-02-16T20:02:00.836Z,8.87
2023-02-16T20:04:28.344Z,9.70
2023-02-16T20:06:56.420Z,9.27
2023-02-16T20:09:23.984Z,9.20
2023-02-16T20:11:52.818Z,8.87
2023-02-16T20:14:20.347Z,9.47
2023-02-16T20:16:49.445Z,8.50
2023-02-16T20:19:16.857Z,9.07
2023-02-16T20:21:46.233Z,8.63
2023-02-16T20:24:14.235Z,8.80
2023-02-16T20:26:43.811Z,8.93
2023-02-16T20:29:14.963Z,8.53
2023-02-16T20:31:43.305Z,9.00
2023-02-16T20:34:11.092Z,8.47
2023-02-16T20:36:38.784Z,8.60
2023-02-16T20:39:06.935Z,7.50
2023-02-16T20:41:34.618Z,8.60
2023-02-16T20:44:02.842Z,7.80
2023-02-16T20:46:31.851Z,8.20
2023-02-16T20:48:59.377Z,8.27
2023-02-16T20:51:27.137Z,8.73
2023-02-16T20:53:54.508Z,8.50
2023-02-16T20:56:22.582Z,8.23
2023-02-16T20:58:50.571Z,8.63
2023-02-16T21:01:20.625Z,8.60
2023-02-16T21:03:49.901Z,8.77
2023-02-16T21:06:17.625Z,8.90
2023-02-16T21:08:45.339Z,9.03
2023-02-16T21:11:12.842Z,9.10
2023-02-16T21:13:41.188Z,9.80
2023-02-16T21:16:09.261Z,10.67
2023-02-16T21:18:39.389Z,10.50
2023-02-16T21:21:09.725Z,10.57
2023-02-16T21:23:37.212Z,10.00
2023-02-16T21:26:06.298Z,10.63
2023-02-16T21:28:34.071Z,11.40
2023-02-16T21:31:03.054Z,11.30
2023-02-16T21:33:30.513Z,11.60
2023-02-16T21:36:03.296Z,11.50
2023-02-16T21:38:32.392Z,11.80
2023-02-16T21:41:20.407Z,11.50
2023-02-16T21:43:47.997Z,11.83
2023-02-16T21:46:15.465Z,11.63
2023-02-16T21:48:48.397Z,12.20
2023-02-16T21:51:17.040Z,11.73
2023-02-16T21:53:45.986Z,12.00
2023-02-16T21:56:23.692Z,12.90
2023-02-16T21:58:51.223Z,13.60
2023-02-16T22:01:22.708Z,12.87
2023-02-16T22:03:50.276Z,13.63
2023-02-16T22:06:17.697Z,13.00
2023-02-16T22:08:46.420Z,13.53
2023-02-16T22:11:14.592Z,14.03
2023-02-16T22:13:41.977Z,13.90
2023-02-16T22:16:10.260Z,13.40
2023-02-16T22:18:37.731Z,14.47
2023-02-16T22:21:05.702Z,14.67
2023-02-16T22:23:33.362Z,12.60
2023-02-16T22:26:02.538Z,14.53
2023-02-16T22:28:30.569Z,14.40
2023-02-16T22:30:58.073Z,14.13
2023-02-16T22:33:25.576Z,13.67
2023-02-16T22:35:53.124Z,14.30
2023-02-16T22:38:20.563Z,13.70
2023-02-16T22:40:47.984Z,13.80
2023-02-16T22:43:16.783Z,14.17
2023-02-16T22:45:44.206Z,13.80
2023-02-16T22:48:11.685Z,13.57
2023-02-16T22:50:39.116Z,13.37
2023-02-16T22:53:06.537Z,12.33
2023-02-16T22:55:33.931Z,13.67
2023-02-16T22:58:01.300Z,13.70
2023-02-16T23:00:30.105Z,13.20
2023-02-16T23:02:57.592Z,12.67
2023-02-16T23:05:24.992Z,13.53
2023-02-16T23:07:52.390Z,12.37
2023-02-16T23:10:19.836Z,12.97
2023-02-16T23:12:47.278Z,13.10
2023-02-16T23:15:14.693Z,13.30
2023-02-16T23:17:43.432Z,12.80
2023-02-16T23:20:11.197Z,13.23
2023-02-16T23:22:39.772Z,13.50
2023-02-16T23:25:25.150Z,13.40
2023-02-16T23:27:52.971Z,13.23
2023-02-16T23:30:20.896Z,12.93
2023-02-16T23:32:49.790Z,12.67
2023-02-16T23:35:17.266Z,12.20
2023-02-16T23:37:45.732Z,11.90
2023-02-16T23:40:13.508Z,12.50
2023-02-16T23:42:41.065Z,12.53
2023-02-16T23:45:08.897Z,12.60
2023-02-16T23:47:36.661Z,13.00
2023-02-16T23:50:05.838Z,12.43
2023-02-16T23:52:33.696Z,12.90
2023-02-16T23:55:01.108Z,12.90
2023-02-16T23:57:28.629Z,14.00
2023-02-16T23:59:56.062Z,12.80
